createdAt,value
2019-04-03T00:03:58.822Z,50.80
2019-04-03T00:09:06.586Z,50.90
2019-04-03T00:14:12.740Z,51.00
2019-04-03T00:19:17.789Z,51.10
2019-04-03T00:24:23.630Z,51.10
2019-04-03T00:29:28.283Z,51.20
2019-04-03T00:34:32.783Z,51.30
2019-04-03T00:39:37.187Z,51.20
2019-04-03T00:44:41.530Z,51.70
2019-04-03T00:49:45.910Z,51.00
2019-04-03T00:54:50.211Z,50.90
2019-04-03T00:59:56.343Z,50.90
2019-04-03T01:05:00.637Z,50.90
2019-04-03T01:10:05.816Z,50.90
2019-04-03T01:15:10.342Z,50.80
2019-04-03T01:20:14.731Z,50.80
2019-04-03T01:25:19.139Z,50.80
2019-04-03T01:30:23.632Z,50.90
2019-04-03T01:35:28.126Z,50.80
2019-04-03T01:40:32.498Z,50.80
2019-04-03T01:45:37.006Z,50.80
2019-04-03T01:50:41.551Z,50.80
2019-04-03T01:55:45.900Z,50.80
2019-04-03T02:00:50.253Z,50.80
2019-04-03T02:05:54.647Z,50.80
2019-04-03T02:10:58.992Z,50.80
2019-04-03T02:16:03.738Z,50.80
2019-04-03T02:21:08.078Z,50.80
2019-04-03T02:26:12.418Z,50.80
2019-04-03T02:31:19.078Z,50.80
2019-04-03T02:36:23.959Z,50.80
2019-04-03T02:41:28.384Z,50.80
2019-04-03T02:46:32.931Z,50.80
2019-04-03T02:51:37.532Z,50.70
2019-04-03T02:56:44.486Z,50.80
2019-04-03T03:01:48.119Z,50.80
2019-04-03T03:06:52.478Z,50.80
2019-04-03T03:11:57.213Z,50.80
2019-04-03T03:17:01.788Z,50.90
2019-04-03T03:22:06.123Z,50.90
2019-04-03T03:27:10.478Z,50.80
2019-04-03T03:32:20.049Z,50.90
2019-04-03T03:37:21.061Z,50.90
2019-04-03T03:42:30.091Z,50.90
2019-04-03T03:47:35.195Z,51.00
2019-04-03T03:52:39.200Z,51.40
2019-04-03T03:57:44.964Z,52.00
2019-04-03T04:02:49.792Z,52.10
2019-04-03T04:07:54.916Z,52.30
2019-04-03T04:12:59.274Z,52.60
2019-04-03T04:18:03.916Z,52.80
2019-04-03T04:23:08.774Z,53.80
2019-04-03T04:28:13.202Z,55.00
2019-04-03T04:33:17.868Z,53.90
2019-04-03T04:38:23.177Z,54.10
2019-04-03T04:43:27.683Z,56.20
2019-04-03T04:48:33.162Z,54.10
2019-04-03T04:53:37.543Z,53.60
2019-04-03T04:58:43.013Z,53.10
2019-04-03T05:03:47.880Z,52.90
2019-04-03T05:08:52.468Z,52.50
2019-04-03T05:13:56.936Z,52.80
2019-04-03T05:19:09.560Z,52.50
2019-04-03T05:24:12.686Z,52.00
2019-04-03T05:29:13.396Z,51.80
2019-04-03T05:34:17.757Z,51.40
2019-04-03T05:39:23.924Z,51.00
2019-04-03T05:44:28.239Z,50.60
2019-04-03T05:49:32.873Z,50.40
2019-04-03T05:54:39.386Z,50.30
2019-04-03T05:59:44.565Z,50.20
2019-04-03T06:04:49.164Z,50.10
2019-04-03T06:09:54.209Z,50.10
2019-04-03T06:14:59.778Z,50.10
2019-04-03T06:20:10.498Z,50.10
2019-04-03T06:25:14.150Z,50.20
2019-04-03T06:30:18.882Z,50.10
2019-04-03T06:35:23.331Z,50.10
2019-04-03T06:40:27.662Z,50.10
2019-04-03T06:45:32.098Z,50.10
2019-04-03T06:50:37.244Z,50.10
2019-04-03T06:55:41.678Z,50.10
2019-04-03T07:00:47.343Z,50.20
2019-04-03T07:05:52.158Z,50.20
2019-04-03T07:10:56.457Z,50.20
2019-04-03T07:16:01.882Z,50.20
2019-04-03T07:21:06.230Z,50.20
2019-04-03T07:26:10.601Z,50.20
2019-04-03T07:31:14.902Z,50.20
2019-04-03T07:36:19.295Z,50.30
2019-04-03T07:41:23.643Z,50.20
2019-04-03T07:46:27.968Z,50.20
2019-04-03T07:51:32.362Z,50.20
2019-04-03T07:56:36.897Z,50.30
2019-04-03T08:01:41.842Z,50.40
2019-04-03T08:06:46.257Z,50.30
2019-04-03T08:11:50.668Z,50.40
2019-04-03T08:16:56.881Z,50.30
2019-04-03T08:22:01.893Z,50.30
2019-04-03T08:27:08.198Z,50.30
2019-04-03T08:32:15.362Z,50.40
2019-04-03T08:37:28.467Z,50.40
2019-04-03T08:42:24.293Z,50.40
2019-04-03T08:47:28.667Z,50.30
2019-04-03T08:52:34.823Z,50.30
2019-04-03T08:57:39.165Z,50.30
2019-04-03T09:02:43.993Z,50.30
2019-04-03T09:07:48.681Z,50.40
2019-04-03T09:12:52.999Z,50.50
2019-04-03T09:17:57.395Z,50.40
2019-04-03T09:23:01.715Z,50.40
2019-04-03T09:28:06.224Z,50.40
2019-04-03T09:33:10.647Z,50.40
2019-04-03T09:38:15.217Z,50.30
2019-04-03T09:43:21.530Z,50.20
2019-04-03T09:48:25.555Z,50.20
2019-04-03T09:53:30.938Z,50.10
2019-04-03T09:58:36.736Z,50.10
2019-04-03T10:03:41.350Z,50.10
2019-04-03T10:08:45.895Z,50.00
2019-04-03T10:13:50.239Z,50.00
2019-04-03T10:18:55.782Z,50.00
2019-04-03T10:24:00.470Z,50.00
2019-04-03T10:29:04.883Z,50.20
2019-04-03T10:34:09.437Z,50.00
2019-04-03T10:39:14.606Z,50.00
2019-04-03T10:44:18.950Z,49.90
2019-04-03T10:49:23.271Z,50.60
2019-04-03T10:54:27.582Z,49.90
2019-04-03T10:59:31.931Z,50.00
2019-04-03T11:04:36.326Z,49.90
2019-04-03T11:09:40.658Z,49.90
2019-04-03T11:14:44.984Z,49.90
2019-04-03T11:19:49.572Z,49.90
2019-04-03T11:24:54.055Z,49.80
2019-04-03T11:29:58.487Z,49.90
2019-04-03T11:35:02.874Z,50.00
2019-04-03T11:40:09.496Z,50.10
2019-04-03T11:45:15.927Z,50.00
2019-04-03T11:50:20.319Z,50.10
2019-04-03T11:55:24.640Z,50.10
2019-04-03T12:00:39.860Z,50.10
2019-04-03T12:05:45.713Z,50.00
2019-04-03T12:10:50.270Z,50.00
2019-04-03T12:15:57.504Z,50.00
2019-04-03T12:21:00.937Z,50.00
2019-04-03T12:26:05.295Z,50.00
2019-04-03T12:31:09.603Z,50.00
2019-04-03T12:36:14.436Z,50.00
2019-04-03T12:41:19.131Z,50.00
2019-04-03T12:46:25.251Z,50.00
2019-04-03T12:51:31.517Z,50.00
2019-04-03T12:56:36.005Z,50.00
2019-04-03T13:01:42.423Z,50.00
2019-04-03T13:06:46.734Z,50.10
2019-04-03T13:11:51.094Z,50.00
2019-04-03T13:16:55.411Z,50.10
2019-04-03T13:21:59.735Z,50.10
2019-04-03T13:27:04.423Z,50.10
2019-04-03T13:32:08.703Z,50.20
2019-04-03T13:37:13.184Z,50.20
2019-04-03T13:42:17.580Z,50.20
2019-04-03T13:47:21.963Z,50.20
2019-04-03T13:52:39.069Z,50.40
2019-04-03T13:57:32.652Z,50.40
2019-04-03T14:02:37.433Z,50.40
2019-04-03T14:07:42.588Z,50.50
2019-04-03T14:12:48.401Z,50.60
2019-04-03T14:17:57.403Z,50.70
2019-04-03T14:23:02.999Z,50.80
2019-04-03T14:28:05.295Z,51.00
2019-04-03T14:33:10.116Z,51.10
2019-04-03T14:38:14.555Z,51.00
2019-04-03T14:43:18.956Z,51.00
2019-04-03T14:48:24.111Z,50.80
2019-04-03T14:53:29.234Z,50.80
2019-04-03T14:58:33.811Z,50.80
2019-04-03T15:03:38.278Z,50.70
2019-04-03T15:08:42.756Z,50.80
2019-04-03T15:13:49.501Z,50.90
2019-04-03T15:18:53.541Z,51.00
2019-04-03T15:23:58.797Z,50.90
2019-04-03T15:29:03.591Z,51.00
2019-04-03T15:34:08.078Z,51.40
2019-04-03T15:39:16.478Z,51.80
2019-04-03T15:44:21.011Z,51.90
2019-04-03T15:49:26.635Z,52.00
2019-04-03T15:54:33.077Z,51.90
2019-04-03T15:59:37.632Z,52.10
2019-04-03T16:04:41.985Z,52.10
2019-04-03T16:09:49.538Z,52.20
2019-04-03T16:14:53.079Z,52.30
2019-04-03T16:19:57.622Z,52.70
2019-04-03T16:25:02.202Z,52.90
2019-04-03T16:30:14.174Z,53.20
2019-04-03T16:35:19.666Z,52.80
2019-04-03T16:40:23.623Z,52.80
2019-04-03T16:45:28.199Z,52.80
2019-04-03T16:50:32.879Z,52.50
2019-04-03T16:55:37.566Z,53.80
2019-04-03T17:03:10.537Z,55.70
2019-04-03T17:14:36.923Z,54.10
2019-04-03T17:19:38.570Z,54.40
2019-04-03T17:24:44.212Z,54.30
2019-04-03T17:29:45.702Z,54.30
2019-04-03T17:34:46.787Z,53.80
2019-04-03T17:39:48.445Z,54.00
2019-04-03T17:44:50.221Z,53.90
2019-04-03T17:49:51.786Z,53.80
2019-04-03T17:54:53.197Z,53.90
2019-04-03T18:18:52.097Z,52.50
2019-04-03T18:24:46.776Z,51.90
2019-04-03T18:29:48.462Z,52.90
2019-04-03T18:34:54.713Z,54.30
2019-04-03T18:39:53.279Z,54.40
2019-04-03T18:44:57.511Z,54.30
2019-04-03T18:50:02.723Z,53.90
2019-04-03T18:55:01.706Z,54.10
2019-04-03T19:00:07.201Z,53.50
2019-04-03T19:05:13.474Z,53.20
2019-04-03T19:10:12.862Z,53.00
2019-04-03T19:15:14.456Z,53.10
2019-04-03T19:20:16.051Z,53.60
2019-04-03T19:25:18.872Z,53.70
2019-04-03T19:30:20.615Z,53.50
2019-04-03T19:35:22.202Z,53.30
2019-04-03T19:40:23.834Z,53.30
2019-04-03T19:45:25.391Z,53.20
2019-04-03T19:50:31.459Z,53.20
2019-04-03T19:55:30.603Z,53.30
2019-04-03T20:00:34.674Z,53.10
2019-04-03T20:05:35.592Z,53.10
2019-04-03T20:10:37.240Z,53.70
2019-04-03T20:15:38.752Z,53.00
2019-04-03T20:20:40.403Z,52.90
2019-04-03T20:25:41.916Z,52.80
2019-04-03T20:30:44.740Z,52.80
2019-04-03T20:35:49.463Z,52.80
2019-04-03T20:40:49.616Z,52.70
2019-04-03T20:45:51.211Z,52.70
2019-04-03T20:50:52.754Z,52.80
2019-04-03T20:55:55.935Z,52.70
2019-04-03T21:01:05.984Z,52.70
2019-04-03T21:06:00.951Z,52.70
2019-04-03T21:11:02.855Z,52.60
2019-04-03T21:16:04.590Z,52.50
2019-04-03T21:21:06.083Z,52.50
2019-04-03T21:26:07.634Z,52.40
2019-04-03T21:31:10.165Z,52.40
2019-04-03T21:36:11.672Z,52.40
2019-04-03T21:41:13.148Z,52.40
2019-04-03T21:46:14.728Z,52.30
2019-04-03T21:51:16.315Z,52.30
2019-04-03T21:56:17.819Z,52.20
2019-04-03T22:01:21.335Z,52.20
2019-04-03T22:06:22.923Z,52.10
2019-04-03T22:11:25.493Z,52.20
2019-04-03T22:16:27.055Z,52.20
2019-04-03T22:21:28.623Z,52.30
2019-04-03T22:26:30.093Z,52.40
2019-04-03T22:31:31.699Z,52.40
2019-04-03T22:36:33.662Z,52.50
2019-04-03T22:41:35.600Z,52.50
2019-04-03T22:46:37.092Z,52.50
2019-04-03T22:51:38.612Z,52.60
2019-04-03T22:56:40.104Z,52.60
2019-04-03T23:01:41.597Z,52.60
2019-04-03T23:06:43.193Z,52.60
2019-04-03T23:11:44.908Z,52.60
2019-04-03T23:16:46.833Z,52.60
2019-04-03T23:21:48.634Z,52.50
2019-04-03T23:26:50.573Z,52.50
2019-04-03T23:31:52.464Z,52.60
2019-04-03T23:36:54.829Z,52.60
2019-04-03T23:41:56.933Z,52.50
2019-04-03T23:46:58.777Z,52.50
2019-04-03T23:52:00.701Z,52.50
2019-04-03T23:57:02.492Z,52.50
